Terminal Aerodrome Forecast
Issued by NWS

Home | Current Version | Previous Version | Text Only | Print | Product List | Glossary On
Versions: 1 2 3 4 5 6 7 8 9 10 11 12 13 14 15 16 17
000
FTUS46 KPDT 271700
TAFRDM
TAF
KRDM 271720Z 2718/2818 17006KT P6SM BKN050 OVC120
     FM272100 19008KT P6SM VCSH BKN040 OVC050
     FM280000 22008KT P6SM -SHRA BKN030 OVC050
     FM281000 28011KT P6SM BKN030=

USA.gov is the U.S. government's official web portal to all federal, state and local government web resources and services.